Murcia Airport, Spain

2:04 PM CEST on August 26, 2016 (GMT +0200)
AVILESES | | Change Station

Elev 331 ft 37.84 °N, 0.91 °W | Updated 51 seconds ago

Partly Cloudy
Partly Cloudy
82.2 °F
Feels Like 85 °F
N
9.8
Wind Variable Wind from East
Gusts 12.3 mph

Today
High -- | Low -- °F
--% Chance of Precip.
Yesterday
High -- | Low -- °F
Precip. -- in
Pressure 30.06 in
Visibility 6.2 miles
Clouds Few 2500 ft
Heat Index 85 °F
Dew Point 67 °F
Humidity 60%
Rainfall 0.00 in
Snow Depth Not available.
7:28 AM 8:40 PM
Waning Crescent, 35% visible
METAR LEAL 261130Z 09009KT 060V120 9999 FEW025 28/18 Q1018 NOSIG
Pressure 30.06 in
Visibility 6.2 miles
Clouds Few 2500 ft
Heat Index 85 °F
Dew Point 67 °F
Humidity 60%
Rainfall 0.00 in
Snow Depth Not available.
7:28 AM 8:40 PM
Waning Crescent, 35% visible
METAR LEAL 261130Z 09009KT 060V120 9999 FEW025 28/18 Q1018 NOSIG

10-Day Weather Forecast

×

Almanac

Astronomy

Aug. 26, 2016 Rise Set
Actual Time
Civil Twilight
Nautical Twilight
Astronomical Twilight
Moon
Length of Visible Light
Length of Day
Tomorrow will be .
, % of the Moon is Illuminated

Today's Extremes

Country Highs Country Lows

Community

WunderPhotos

Upload Photos

1,935,077 photos uploaded!

WunderBlog® & News

Nearby

Air Quality

  Air Quality AQ Index Pollutant
Not available.

Snow Depth

Station Depth Elevation

Earthquake Activity

City Distance Mag. Time & Date
Minimum magnitude displayed is 2.5.

Coastal Water Temperatures

Place Temperature

Stations

Nearby Weather Stations

Station Location Temp. Windchill Dew Point Humidity Wind Precip. Elev Updated Type